Time;durP1;ratioP1;P1;durP2;ratioP2;P2;SDS_P1;SDS_P2;PMS_P1;PMS_P2;Temp;Humidity;BMP_temperature;BMP_pressure;BME280_temperature;BME280_humidity;BME280_pressure;Samples;Min_cycle;Max_cycle;Signal;HPM_P1;HPM_P2
2022/11/06 00:00:14;;;;;;;;;5.25;5.25;;;;;21.24;41.34;101153.31;5057446;28;45429;-57
2022/11/06 00:02:40;;;;;;;;;5.00;5.00;;;;;21.21;41.01;101137.69;5057536;28;45577;-55
2022/11/06 00:07:49;;;;;;;;;5.00;5.00;;;;;21.24;41.33;101132.22;5057984;28;45480;-55
2022/11/06 00:10:16;;;;;;;;;6.25;5.00;;;;;21.24;41.15;101132.22;5059160;28;45394;-55
2022/11/06 00:12:41;;;;;;;;;5.75;5.00;;;;;21.23;41.12;101130.53;5069337;28;45265;-56
2022/11/06 00:15:07;;;;;;;;;6.25;6.25;;;;;21.21;41.09;101116.59;5069623;28;45319;-57
2022/11/06 00:17:33;;;;;;;;;6.00;5.00;;;;;21.16;41.29;101115.97;5065655;28;45329;-54
2022/11/06 00:19:58;;;;;;;;;4.00;4.00;;;;;21.21;40.99;101139.47;5056350;28;45459;-57
2022/11/06 00:22:23;;;;;;;;;6.00;6.00;;;;;21.20;41.28;101157.06;5056451;28;45271;-56
2022/11/06 00:24:49;;;;;;;;;1.00;1.00;;;;;21.20;41.14;101150.94;5057177;28;45299;-55
2022/11/06 00:27:15;;;;;;;;;6.00;4.50;;;;;21.19;41.21;101157.13;5056017;28;58630;-53
2022/11/06 00:29:40;;;;;;;;;4.00;4.00;;;;;21.18;41.08;101145.75;5056950;28;45855;-52
2022/11/06 00:32:06;;;;;;;;;4.75;4.25;;;;;21.13;41.43;101138.09;5057129;28;45334;-52
2022/11/06 00:34:31;;;;;;;;;4.00;4.00;;;;;21.18;40.91;101153.66;5077462;28;44853;-52
2022/11/06 00:36:56;;;;;;;;;4.00;4.00;;;;;21.17;41.01;101151.94;5082243;28;48315;-50
2022/11/06 00:39:22;;;;;;;;;3.75;3.75;;;;;21.13;41.42;101139.84;5078745;28;56547;-52
2022/11/06 00:41:47;;;;;;;;;6.25;5.00;;;;;21.17;41.45;101144.03;5058468;28;45315;-54
2022/11/06 00:44:12;;;;;;;;;6.25;4.00;;;;;21.17;40.91;101146.69;5058211;28;45366;-53
2022/11/06 00:46:38;;;;;;;;;6.50;4.75;;;;;21.16;41.29;101139.69;5057010;28;45397;-54
2022/11/06 00:49:03;;;;;;;;;4.50;3.50;;;;;21.14;41.20;101137.16;5055825;28;45428;-53
2022/11/06 00:51:31;;;;;;;;;4.50;4.50;;;;;21.16;40.99;101134.44;5057168;28;45401;-54
2022/11/06 00:54:03;;;;;;;;;6.25;4.25;;;;;21.16;41.24;101134.44;5059914;28;45624;-56
2022/11/06 00:56:29;;;;;;;;;5.00;4.00;;;;;21.13;41.17;101124.91;5067829;28;46546;-66
2022/11/06 00:58:57;;;;;;;;;7.00;5.00;;;;;21.12;40.90;101111.78;5069603;28;45111;-53
2022/11/06 01:01:25;;;;;;;;;4.00;4.00;;;;;21.11;41.39;101102.22;5062542;28;44739;-52
2022/11/06 01:04:00;;;;;;;;;6.25;4.25;;;;;21.13;41.19;101102.97;5067527;28;45379;-55
2022/11/06 01:06:29;;;;;;;;;3.75;3.75;;;;;21.13;41.31;101106.47;5062496;28;46405;-57
2022/11/06 01:08:55;;;;;;;;;6.25;4.50;;;;;21.07;41.46;101108.56;5057388;28;45403;-58
2022/11/06 01:11:23;;;;;;;;;6.00;4.50;;;;;21.11;41.25;101104.84;5057364;28;45685;-56
2022/11/06 01:13:52;;;;;;;;;6.50;4.00;;;;;21.08;41.40;101110.28;5057075;28;45387;-54
2022/11/06 01:16:18;;;;;;;;;4.25;4.25;;;;;21.04;40.98;101096.41;5057042;28;46104;-55
2022/11/06 01:18:44;;;;;;;;;4.75;4.75;;;;;21.01;41.13;101078.97;5057490;28;45939;-58
2022/11/06 01:21:15;;;;;;;;;4.00;4.00;;;;;20.99;40.97;101077.34;5056082;28;45396;-54
2022/11/06 01:23:41;;;;;;;;;6.50;4.00;;;;;20.96;41.32;101085.41;5056573;28;45577;-55
2022/11/06 01:26:09;;;;;;;;;5.50;4.75;;;;;20.88;41.53;101077.94;5056988;28;46395;-55
2022/11/06 01:28:36;;;;;;;;;4.25;4.25;;;;;20.89;41.31;101090.16;5057358;28;45322;-54
2022/11/06 01:31:06;;;;;;;;;4.50;3.00;;;;;20.88;41.23;101093.75;5057370;28;45299;-58
2022/11/06 01:33:32;;;;;;;;;4.75;4.75;;;;;20.85;41.37;101089.47;5057598;28;45544;-57
2022/11/06 01:35:58;;;;;;;;;6.75;6.00;;;;;20.83;41.22;101086.09;5057597;28;46045;-58
2022/11/06 01:38:23;;;;;;;;;4.00;3.00;;;;;20.79;41.59;101083.66;5058089;28;45559;-57
2022/11/06 01:40:49;;;;;;;;;4.50;4.00;;;;;20.79;41.02;101094.22;5057470;28;52825;-53
2022/11/06 01:43:21;;;;;;;;;3.00;3.00;;;;;20.73;41.53;101081.34;5057250;28;45344;-58
2022/11/06 01:45:48;;;;;;;;;4.00;4.00;;;;;20.75;41.18;101097.94;5057130;28;46128;-57
2022/11/06 01:48:17;;;;;;;;;4.50;2.75;;;;;20.74;41.24;101089.19;5057412;28;45344;-57
2022/11/06 01:50:46;;;;;;;;;4.00;4.00;;;;;20.72;41.45;101091.03;5057369;28;45287;-59
2022/11/06 01:53:13;;;;;;;;;3.00;3.00;;;;;20.69;41.27;101078.03;5076703;28;45360;-57
2022/11/06 01:55:43;;;;;;;;;3.50;3.50;;;;;20.66;41.70;101072.91;5082680;28;46145;-56
2022/11/06 01:58:13;;;;;;;;;5.00;4.00;;;;;20.67;41.33;101075.44;5079377;28;45613;-58
2022/11/06 02:00:39;;;;;;;;;4.00;4.00;;;;;20.65;41.17;101066.81;5083451;28;44745;-57
2022/11/06 02:03:05;;;;;;;;;4.25;2.00;;;;;20.62;41.69;101056.41;5087464;28;44794;-54
2022/11/06 02:05:31;;;;;;;;;3.50;3.00;;;;;20.57;41.70;101047.88;5087834;28;44996;-52
2022/11/06 02:07:58;;;;;;;;;4.00;4.00;;;;;20.58;41.53;101048.75;5085499;28;44665;-54
2022/11/06 02:10:23;;;;;;;;;6.00;4.00;;;;;20.60;41.17;101052.16;5074027;28;44784;-56
2022/11/06 02:13:07;;;;;;;;;3.00;3.00;;;;;20.59;41.40;101046.03;5061568;28;45173;-55
2022/11/06 02:15:45;;;;;;;;;4.25;3.00;;;;;20.58;41.69;101028.53;5058784;28;47132;-55
2022/11/06 02:18:43;;;;;;;;;3.75;3.00;;;;;20.52;41.39;101018.34;5058799;28;45388;-53
2022/11/06 02:21:46;;;;;;;;;3.50;3.00;;;;;20.55;41.81;101012.91;5059525;28;45535;-55
2022/11/06 02:24:34;;;;;;;;;6.00;5.00;;;;;20.54;41.20;101009.41;5075732;28;45399;-53
2022/11/06 02:27:11;;;;;;;;;4.00;3.00;;;;;20.53;41.46;100994.53;5059951;28;45372;-58
2022/11/06 02:29:51;;;;;;;;;3.00;3.00;;;;;20.52;41.46;100986.72;5059393;28;45390;-58
2022/11/06 02:32:39;;;;;;;;;4.75;3.00;;;;;20.51;41.58;100969.22;5072014;28;45416;-58
2022/11/06 02:35:29;;;;;;;;;2.50;2.50;;;;;20.48;41.72;100986.06;5059978;28;45461;-57
2022/11/06 02:38:00;;;;;;;;;3.50;3.50;;;;;20.45;41.64;100980.09;5059100;28;47399;-55
2022/11/06 02:40:32;;;;;;;;;4.25;4.00;;;;;20.47;41.64;100994.88;5058522;28;45376;-53
2022/11/06 02:42:59;;;;;;;;;3.50;3.50;;;;;20.48;41.37;100990.44;5058390;28;45911;-56
2022/11/06 02:45:29;;;;;;;;;2.00;2.00;;;;;20.44;41.69;100983.66;5058561;28;45362;-57
2022/11/06 02:47:56;;;;;;;;;2.00;2.00;;;;;20.47;41.72;100986.13;5058169;28;46425;-55
2022/11/06 02:50:29;;;;;;;;;4.00;4.00;;;;;20.46;41.43;101000.19;5057105;28;45394;-54
2022/11/06 02:52:58;;;;;;;;;4.00;3.25;;;;;20.46;41.74;100995.81;5058450;28;45306;-56
2022/11/06 02:55:32;;;;;;;;;2.50;2.50;;;;;20.45;41.79;100980.94;5057073;28;45529;-58
2022/11/06 02:58:05;;;;;;;;;4.00;4.00;;;;;20.45;41.67;100990.63;5058126;28;46729;-56
2022/11/06 03:00:33;;;;;;;;;3.75;2.50;;;;;20.44;41.48;100996.81;5057736;28;45901;-55
2022/11/06 03:03:20;;;;;;;;;3.00;3.00;;;;;20.37;41.71;100978.69;5058250;28;45407;-56
2022/11/06 03:05:56;;;;;;;;;5.00;4.00;;;;;20.42;41.81;100990.78;5059138;28;45273;-55
2022/11/06 03:08:48;;;;;;;;;5.00;3.00;;;;;20.42;41.41;100990.78;5059133;28;45389;-54
2022/11/06 03:11:26;;;;;;;;;4.25;4.25;;;;;20.38;41.85;100977.78;5056820;28;45884;-55
2022/11/06 03:14:05;;;;;;;;;4.00;4.00;;;;;20.37;41.72;100978.69;5058336;28;45362;-55
2022/11/06 03:16:41;;;;;;;;;3.25;3.25;;;;;20.38;41.67;100975.16;5058142;28;45238;-55
2022/11/06 03:19:16;;;;;;;;;4.00;3.50;;;;;20.38;41.94;100954.09;5058173;28;48243;-56
2022/11/06 03:21:52;;;;;;;;;4.75;3.00;;;;;20.38;41.64;100950.63;5066301;28;45341;-56
2022/11/06 03:24:35;;;;;;;;;4.00;3.25;;;;;20.37;41.83;100948.91;5064196;28;45248;-52
2022/11/06 03:27:13;;;;;;;;;4.00;2.75;;;;;20.34;41.55;100947.28;5057939;28;45263;-55
2022/11/06 03:29:44;;;;;;;;;2.75;2.75;;;;;20.34;41.80;100952.53;5057437;28;47100;-53
2022/11/06 03:32:36;;;;;;;;;3.50;3.00;;;;;20.35;41.74;100942.88;5057667;28;45781;-53
2022/11/06 03:35:13;;;;;;;;;3.25;3.00;;;;;20.34;41.78;100934.09;5048922;28;45418;-54
2022/11/06 03:37:47;;;;;;;;;3.00;2.75;;;;;20.33;41.26;100935.06;5058258;28;45356;-57
2022/11/06 03:40:18;;;;;;;;;4.00;3.00;;;;;20.28;41.81;100921.28;5058320;28;46464;-53
2022/11/06 03:42:45;;;;;;;;;3.75;3.75;;;;;20.29;41.54;100927.38;5074503;28;45097;-55
2022/11/06 03:45:18;;;;;;;;;5.25;3.25;;;;;20.33;41.80;100936.84;5059828;28;45454;-55
2022/11/06 03:47:59;;;;;;;;;2.50;2.50;;;;;20.27;42.00;100924.00;5057753;28;45367;-54
2022/11/06 03:50:30;;;;;;;;;3.25;3.00;;;;;20.27;41.40;100934.53;5056649;28;48099;-53
2022/11/06 03:53:19;;;;;;;;;5.00;4.00;;;;;20.30;41.74;100945.75;5062586;28;45243;-54
2022/11/06 03:55:50;;;;;;;;;3.00;3.00;;;;;20.29;41.74;100938.78;5075522;28;45559;-56
2022/11/06 03:58:23;;;;;;;;;3.00;3.00;;;;;20.29;41.35;100919.50;5073193;28;45420;-53
2022/11/06 04:00:51;;;;;;;;;4.25;2.75;;;;;20.29;41.63;100911.59;5071838;28;45279;-55
2022/11/06 04:03:24;;;;;;;;;2.25;2.25;;;;;20.27;41.49;100914.31;5068784;28;45089;-58
2022/11/06 04:05:59;;;;;;;;;3.25;2.75;;;;;20.28;41.75;100904.66;5065573;28;45420;-55
2022/11/06 04:14:04;;;;;;;;;3.00;3.00;;;;;20.24;41.66;100910.06;5057263;28;45949;-54
2022/11/06 04:16:44;;;;;;;;;3.00;2.75;;;;;20.20;41.97;100897.16;5056759;28;45298;-55
2022/11/06 04:19:16;;;;;;;;;3.25;3.25;;;;;20.19;41.34;100890.19;5057944;28;45282;-56
2022/11/06 04:22:06;;;;;;;;;3.50;3.25;;;;;20.22;41.35;100885.63;5057358;28;46280;-55
2022/11/06 04:27:28;;;;;;;;;5.00;2.00;;;;;20.22;41.47;100895.31;5056945;28;45359;-56
2022/11/06 04:30:13;;;;;;;;;4.00;2.00;;;;;20.21;41.89;100883.91;5057357;28;45284;-57
2022/11/06 04:33:07;;;;;;;;;3.00;2.50;;;;;20.17;41.65;100874.50;5056466;28;46182;-58
2022/11/06 04:36:04;;;;;;;;;3.50;3.50;;;;;20.18;41.80;100885.88;5056655;28;45825;-58
2022/11/06 04:39:18;;;;;;;;;4.50;3.00;;;;;20.14;41.42;100884.31;5063653;28;45363;-58
2022/11/06 04:41:56;;;;;;;;;3.25;3.25;;;;;20.17;41.57;100886.78;5013287;28;45160;-55
2022/11/06 04:44:28;;;;;;;;;3.25;3.00;;;;;20.17;41.42;100890.28;5056422;28;46622;-52
2022/11/06 04:46:58;;;;;;;;;2.00;2.00;;;;;20.16;41.56;100896.47;5056827;28;45897;-54
2022/11/06 04:49:25;;;;;;;;;7.00;3.00;;;;;20.13;42.01;100879.97;5056824;28;45279;-55
2022/11/06 04:51:52;;;;;;;;;3.25;3.00;;;;;20.18;41.73;100885.88;5056376;28;45472;-54
2022/11/06 04:54:18;;;;;;;;;3.75;3.25;;;;;20.17;41.53;100885.03;5056031;28;46428;-53
2022/11/06 04:56:43;;;;;;;;;3.00;3.00;;;;;20.18;41.55;100881.44;5056221;28;45397;-54
2022/11/06 04:59:12;;;;;;;;;3.00;3.00;;;;;20.18;41.62;100883.22;5056890;28;45334;-53
2022/11/06 05:01:38;;;;;;;;;4.25;3.75;;;;;20.17;41.55;100878.91;5065877;28;45174;-53
2022/11/06 05:04:03;;;;;;;;;2.00;2.00;;;;;20.13;41.69;100869.44;5059187;28;46137;-56
2022/11/06 05:06:28;;;;;;;;;3.50;3.00;;;;;20.17;41.64;100871.88;5056565;28;45338;-55
2022/11/06 05:08:54;;;;;;;;;3.50;3.00;;;;;20.18;41.69;100864.81;5056194;28;45330;-56
2022/11/06 05:11:19;;;;;;;;;3.25;3.25;;;;;20.17;41.65;100865.75;5055169;28;45624;-53
2022/11/06 05:13:45;;;;;;;;;3.00;3.00;;;;;20.13;41.80;100856.28;5054812;28;48407;-54
2022/11/06 05:16:10;;;;;;;;;3.33;2.00;;;;;20.16;41.96;100857.00;5056481;28;63466;-59
2022/11/06 05:18:35;;;;;;;;;2.00;2.00;;;;;20.15;41.43;100862.34;5076804;28;45657;-57
2022/11/06 05:23:45;;;;;;;;;3.00;3.00;;;;;20.14;41.65;100855.38;5066968;28;45338;-57
2022/11/06 05:26:10;;;;;;;;;3.00;3.00;;;;;20.13;41.74;100854.53;5056205;28;45366;-57
2022/11/06 05:28:36;;;;;;;;;3.00;3.00;;;;;20.14;41.93;100848.34;5055353;28;64902;-59
2022/11/06 05:31:01;;;;;;;;;2.00;2.00;;;;;20.14;41.47;100836.94;5054796;28;48792;-52
2022/11/06 05:33:27;;;;;;;;;5.75;3.50;;;;;20.13;41.36;100835.25;5058602;28;46177;-56
2022/11/06 05:35:52;;;;;;;;;3.50;2.00;;;;;20.08;41.40;100814.44;5070646;28;45284;-58
2022/11/06 05:38:17;;;;;;;;;2.00;2.00;;;;;20.12;41.92;100825.69;5059800;28;45400;-54
2022/11/06 05:40:43;;;;;;;;;2.00;2.00;;;;;20.11;41.52;100818.72;5059309;28;45546;-54
2022/11/06 05:43:08;;;;;;;;;3.00;2.50;;;;;20.12;41.97;100825.69;5059059;28;46034;-54
2022/11/06 05:45:33;;;;;;;;;2.00;2.00;;;;;20.11;41.61;100819.56;5059917;28;45339;-54
2022/11/06 05:47:59;;;;;;;;;5.00;4.00;;;;;20.10;41.85;100817.84;5077942;28;45370;-53
2022/11/06 05:50:24;;;;;;;;;3.75;3.00;;;;;20.05;41.69;100807.56;5080663;28;44729;-55
2022/11/06 05:52:49;;;;;;;;;3.50;3.00;;;;;20.08;41.50;100815.31;5059118;28;46678;-55
2022/11/06 05:55:15;;;;;;;;;2.00;2.00;;;;;20.09;41.45;100821.41;5059206;28;45433;-54
2022/11/06 05:57:41;;;;;;;;;5.25;3.00;;;;;20.02;41.55;100815.63;5059096;28;45322;-53
2022/11/06 06:00:07;;;;;;;;;2.75;2.75;;;;;20.06;41.28;100817.16;5059126;28;45585;-55
2022/11/06 06:02:33;;;;;;;;;3.50;2.50;;;;;20.07;41.56;100810.13;5059059;28;46162;-53
2022/11/06 06:04:58;;;;;;;;;5.00;3.00;;;;;20.07;41.41;100810.97;5058914;28;45337;-55
2022/11/06 06:07:23;;;;;;;;;2.00;2.00;;;;;20.06;41.89;100832.97;5058275;28;52861;-54
2022/11/06 06:09:48;;;;;;;;;3.75;3.00;;;;;20.01;41.76;100808.66;5059079;28;45303;-56
2022/11/06 06:12:14;;;;;;;;;3.00;2.00;;;;;20.06;41.60;100822.44;5058658;28;46957;-52
2022/11/06 06:14:39;;;;;;;;;3.00;3.00;;;;;20.06;41.47;100816.34;5058645;28;45342;-54
2022/11/06 06:17:05;;;;;;;;;5.00;4.00;;;;;20.02;41.99;100805.09;5058795;28;45364;-53
2022/11/06 06:19:30;;;;;;;;;3.00;3.00;;;;;20.04;41.82;100792.72;5072533;28;45229;-55
2022/11/06 06:21:55;;;;;;;;;2.75;2.50;;;;;20.11;41.79;100797.66;5066709;28;49935;-54
2022/11/06 06:24:21;;;;;;;;;1.25;0.00;;;;;20.12;41.99;100791.47;5058868;28;45418;-53
2022/11/06 06:26:46;;;;;;;;;2.25;2.25;;;;;20.14;41.98;100789.59;5058673;28;45317;-59
2022/11/06 06:29:11;;;;;;;;;4.75;3.00;;;;;20.16;41.71;100796.50;5058707;28;45361;-54
2022/11/06 06:31:36;;;;;;;;;3.50;2.25;;;;;20.18;41.63;100786.69;5058443;28;46281;-54
2022/11/06 06:34:02;;;;;;;;;1.00;1.00;;;;;20.20;41.56;100776.94;5057159;28;53178;-57
2022/11/06 06:36:27;;;;;;;;;2.00;2.00;;;;;20.23;42.08;100781.19;5058491;28;45434;-57
2022/11/06 06:38:53;;;;;;;;;3.50;2.25;;;;;20.21;41.21;100764.66;5058566;28;45610;-55
2022/11/06 06:41:19;;;;;;;;;3.75;3.75;;;;;20.28;41.74;100773.91;5058160;28;46964;-54
2022/11/06 06:43:47;;;;;;;;;2.25;2.25;;;;;20.25;41.60;100763.53;5058161;28;45378;-56
2022/11/06 06:46:12;;;;;;;;;1.75;1.75;;;;;20.31;41.48;100767.59;5058361;28;45498;-56
2022/11/06 06:48:37;;;;;;;;;4.00;3.00;;;;;20.32;41.81;100764.91;5057514;28;50415;-55
2022/11/06 06:51:03;;;;;;;;;2.00;2.00;;;;;20.31;41.47;100752.69;5058345;28;46240;-53
2022/11/06 06:53:29;;;;;;;;;5.00;3.00;;;;;20.33;41.08;100757.84;5058244;28;45250;-53
2022/11/06 06:55:57;;;;;;;;;3.00;3.00;;;;;20.33;41.52;100750.81;5058373;28;45402;-56
2022/11/06 06:58:23;;;;;;;;;2.25;2.25;;;;;20.33;41.61;100750.81;5057520;28;45624;-54
2022/11/06 07:00:48;;;;;;;;;2.67;2.67;;;;;20.32;41.53;100728.06;5057630;28;56794;-53
2022/11/06 07:03:13;;;;;;;;;3.25;3.25;;;;;20.35;41.55;100721.75;5058022;28;45366;-55
2022/11/06 07:05:39;;;;;;;;;2.00;2.00;;;;;20.35;40.91;100721.75;5058243;28;45433;-59
2022/11/06 07:08:04;;;;;;;;;2.25;2.25;;;;;20.37;41.03;100725.16;5058707;28;45619;-57
2022/11/06 07:10:30;;;;;;;;;2.00;2.00;;;;;20.35;41.47;100738.38;5057886;28;45303;-59
2022/11/06 07:12:59;;;;;;;;;2.50;2.50;;;;;20.35;41.04;100738.38;5058011;28;45299;-59
2022/11/06 07:15:25;;;;;;;;;3.00;3.00;;;;;20.36;41.04;100749.78;5057990;28;45369;-58
2022/11/06 07:17:50;;;;;;;;;4.00;2.50;;;;;20.36;40.92;100744.53;5056661;28;45609;-56
2022/11/06 07:20:16;;;;;;;;;3.75;3.75;;;;;20.37;41.05;100740.97;5057654;28;46140;-57
2022/11/06 07:22:41;;;;;;;;;3.75;3.00;;;;;20.36;40.92;100734.81;5057714;28;45397;-52
2022/11/06 07:25:07;;;;;;;;;7.00;3.00;;;;;20.31;41.34;100718.47;5058696;28;45364;-58
2022/11/06 07:27:32;;;;;;;;;4.00;3.00;;;;;20.34;40.98;100734.06;5058319;28;45322;-52
2022/11/06 07:29:59;;;;;;;;;3.00;3.00;;;;;20.35;41.29;100737.56;5057416;28;47318;-52
2022/11/06 07:32:24;;;;;;;;;3.00;3.00;;;;;20.36;41.41;100737.47;5061289;28;45787;-53
2022/11/06 07:34:50;;;;;;;;;2.00;2.00;;;;;20.34;41.26;100722.69;5062328;28;45405;-49
2022/11/06 07:37:15;;;;;;;;;5.00;2.33;;;;;20.35;41.31;100717.34;5066288;28;60296;-51
2022/11/06 07:39:40;;;;;;;;;1.75;1.75;;;;;20.34;41.17;100705.09;5082958;28;45586;-52
2022/11/06 07:42:06;;;;;;;;;3.00;3.00;;;;;20.35;41.12;100701.53;5084666;28;44710;-51
2022/11/06 07:44:31;;;;;;;;;2.75;2.75;;;;;20.36;40.79;100703.25;5059466;28;45343;-54
2022/11/06 07:46:56;;;;;;;;;2.75;2.00;;;;;20.30;40.97;100702.75;5057258;28;45173;-50
2022/11/06 07:49:21;;;;;;;;;3.50;3.25;;;;;20.33;40.99;100713.97;5057272;28;45239;-52
2022/11/06 07:51:47;;;;;;;;;2.00;2.00;;;;;20.35;41.32;100727.88;5056988;28;51236;-50
2022/11/06 07:54:12;;;;;;;;;3.67;3.00;;;;;20.33;41.13;100719.22;5056752;28;51162;-47
2022/11/06 07:56:37;;;;;;;;;4.00;4.00;;;;;20.31;40.77;100713.19;5056740;28;45643;-54
2022/11/06 07:59:03;;;;;;;;;4.50;3.00;;;;;20.27;40.82;100708.19;5055456;28;48549;-53
2022/11/06 08:01:28;;;;;;;;;2.00;2.00;;;;;20.29;40.82;100709.81;5056848;28;45407;-55
2022/11/06 08:03:54;;;;;;;;;2.50;2.50;;;;;20.24;41.30;100712.69;5056760;28;45195;-55
2022/11/06 08:06:19;;;;;;;;;3.50;2.00;;;;;20.26;40.85;100712.59;5065766;28;45345;-51
2022/11/06 08:08:45;;;;;;;;;2.75;2.25;;;;;20.26;41.19;100709.13;5062862;28;46098;-48
2022/11/06 08:11:10;;;;;;;;;3.75;3.75;;;;;20.27;41.23;100708.19;5060007;28;45245;-47
2022/11/06 08:13:36;;;;;;;;;2.25;2.00;;;;;20.27;41.46;100721.34;5059979;28;45906;-50
2022/11/06 08:16:03;;;;;;;;;5.25;3.00;;;;;20.26;41.15;100722.28;5069267;28;46026;-49
2022/11/06 08:18:29;;;;;;;;;4.00;3.25;;;;;20.23;41.17;100707.50;5063259;28;46072;-55
2022/11/06 08:20:54;;;;;;;;;3.00;3.00;;;;;20.24;41.19;100701.28;5079734;28;56947;-57
2022/11/06 08:23:19;;;;;;;;;4.00;3.33;;;;;20.25;41.24;100689.84;5082009;28;50741;-57
2022/11/06 08:25:45;;;;;;;;;2.00;2.00;;;;;20.20;41.05;100686.63;5079924;28;45703;-58
2022/11/06 08:28:10;;;;;;;;;3.50;2.25;;;;;20.24;41.50;100690.78;5071498;28;46047;-57
2022/11/06 08:30:36;;;;;;;;;2.00;2.00;;;;;20.22;41.19;100685.59;5060684;28;45407;-57
2022/11/06 08:33:04;;;;;;;;;2.25;2.25;;;;;20.22;41.28;100684.78;5058207;28;45673;-57
2022/11/06 08:45:37;;;;;;;;;4.25;3.25;;;;;20.19;41.23;100690.19;5056198;28;45235;-62
2022/11/06 08:48:04;;;;;;;;;3.75;2.25;;;;;20.18;41.87;100691.97;5056876;28;45400;-71
2022/11/06 08:50:30;;;;;;;;;4.50;3.75;;;;;20.15;41.84;100683.41;5056549;28;46039;-69
2022/11/06 08:52:57;;;;;;;;;3.00;3.00;;;;;20.19;41.71;100687.56;5056651;28;45390;-72
2022/11/06 08:55:23;;;;;;;;;3.25;2.25;;;;;20.18;41.43;100699.03;5057015;28;45229;-69
2022/11/06 08:57:48;;;;;;;;;3.50;3.00;;;;;20.15;41.43;100700.06;5073929;28;45535;-64
2022/11/06 09:00:14;;;;;;;;;4.00;2.50;;;;;20.18;41.33;100689.34;5059131;28;51913;-67
2022/11/06 09:02:39;;;;;;;;;3.00;2.25;;;;;20.16;41.91;100688.59;5056161;28;45447;-64
2022/11/06 09:05:05;;;;;;;;;2.25;2.25;;;;;20.17;41.85;100689.44;5056031;28;45267;-66
2022/11/06 09:07:30;;;;;;;;;3.50;2.00;;;;;20.17;41.79;100686.81;5056237;28;45646;-68
2022/11/06 09:09:56;;;;;;;;;2.00;2.00;;;;;20.17;41.87;100681.53;5057698;28;54397;-68
2022/11/06 09:12:21;;;;;;;;;2.00;2.00;;;;;20.17;41.46;100674.50;5059672;28;45479;-63
2022/11/06 09:14:46;;;;;;;;;2.50;2.50;;;;;20.16;42.06;100669.31;5059516;28;45331;-70
2022/11/06 09:17:12;;;;;;;;;3.00;3.00;;;;;20.11;41.69;100650.31;5059657;28;45373;-67
2022/11/06 09:19:37;;;;;;;;;4.25;2.00;;;;;20.15;41.61;100659.72;5059108;28;53482;-60
2022/11/06 09:22:02;;;;;;;;;5.00;3.00;;;;;20.10;41.52;100653.88;5059047;28;64481;-72
2022/11/06 09:24:28;;;;;;;;;3.50;3.00;;;;;20.13;41.47;100649.28;5059914;28;45391;-67
2022/11/06 09:26:53;;;;;;;;;2.25;2.00;;;;;20.12;41.57;100637.06;5060136;28;45445;-69
2022/11/06 09:29:18;;;;;;;;;3.00;1.67;;;;;20.13;42.00;100616.84;5059711;28;58903;-72
2022/11/06 09:31:43;;;;;;;;;3.00;2.00;;;;;20.07;41.61;100603.13;5074074;28;54831;-58
2022/11/06 09:34:09;;;;;;;;;2.00;2.00;;;;;20.12;42.00;100604.66;5083165;28;51336;-67
2022/11/06 09:36:35;;;;;;;;;4.00;3.00;;;;;20.10;42.15;100598.63;5065985;28;45302;-70
2022/11/06 09:39:00;;;;;;;;;2.25;2.25;;;;;20.11;41.75;100597.69;5058998;28;45465;-71
2022/11/06 09:41:53;;;;;;;;;4.33;2.00;;;;;20.03;41.70;100591.06;5058328;28;66912;-66
2022/11/06 09:44:42;;;;;;;;;2.50;2.50;;;;;20.10;41.84;100599.47;5058925;28;45507;-69
2022/11/06 09:47:20;;;;;;;;;3.00;2.00;;;;;20.11;41.58;100610.84;5059861;28;45208;-64
2022/11/06 09:49:54;;;;;;;;;3.50;2.25;;;;;20.06;41.81;100601.44;5059018;28;46386;-69
2022/11/06 09:52:33;;;;;;;;;3.00;3.00;;;;;20.04;42.04;100590.13;5059298;28;45846;-71
2022/11/06 09:55:03;;;;;;;;;2.00;2.00;;;;;20.09;41.78;100600.41;5059271;28;45362;-69
2022/11/06 09:57:39;;;;;;;;;6.00;4.00;;;;;20.10;42.10;100606.53;5059653;28;45779;-67
2022/11/06 10:00:06;;;;;;;;;2.75;2.00;;;;;20.04;41.91;100592.78;5066935;28;46507;-66
2022/11/06 10:02:42;;;;;;;;;2.50;2.50;;;;;20.10;41.82;100596.00;5080824;28;45220;-61
2022/11/06 10:05:26;;;;;;;;;2.50;2.50;;;;;20.05;41.84;100585.75;5085023;28;45335;-59
2022/11/06 10:07:56;;;;;;;;;2.50;2.50;;;;;20.07;42.09;100587.34;5062076;28;45414;-60
2022/11/06 10:10:37;;;;;;;;;1.00;1.00;;;;;20.08;41.88;100586.41;5069591;28;47102;-57
2022/11/06 10:13:18;;;;;;;;;2.00;2.00;;;;;20.06;42.07;100590.91;5061593;28;45818;-66
2022/11/06 10:16:04;;;;;;;;;1.25;1.25;;;;;20.07;41.90;100589.97;5071479;28;45289;-62
2022/11/06 10:18:47;;;;;;;;;2.25;2.25;;;;;20.07;41.64;100575.97;5085214;28;45091;-62
2022/11/06 10:21:19;;;;;;;;;3.00;2.00;;;;;20.01;41.93;100577.16;5069523;28;45564;-66
2022/11/06 10:23:53;;;;;;;;;4.00;3.00;;;;;20.03;41.91;100564.75;5058971;28;45849;-67
2022/11/06 10:26:26;;;;;;;;;3.00;3.00;;;;;20.04;41.62;100582.25;5058888;28;45415;-63
2022/11/06 10:29:00;;;;;;;;;2.00;2.00;;;;;20.04;42.16;100581.41;5058446;28;45839;-67
2022/11/06 10:31:26;;;;;;;;;4.00;2.00;;;;;20.04;41.85;100579.63;5058597;28;46288;-64
2022/11/06 10:34:05;;;;;;;;;3.00;3.00;;;;;19.98;41.90;100577.34;5059653;28;45412;-67
2022/11/06 10:36:40;;;;;;;;;2.00;2.00;;;;;20.01;41.71;100578.94;5059553;28;45378;-64
2022/11/06 10:39:14;;;;;;;;;2.00;2.00;;;;;20.01;41.75;100585.06;5059031;28;45424;-63
2022/11/06 10:41:43;;;;;;;;;2.50;2.50;;;;;20.01;41.73;100592.94;5060383;28;47152;-67
2022/11/06 10:44:20;;;;;;;;;3.00;3.00;;;;;19.97;41.89;100590.56;5061156;28;45352;-64
2022/11/06 10:46:52;;;;;;;;;4.50;3.25;;;;;19.95;41.82;100582.78;5058540;28;45235;-64
2022/11/06 10:49:49;;;;;;;;;2.00;2.00;;;;;20.01;41.79;100590.31;5059087;28;45243;-64
2022/11/06 10:52:39;;;;;;;;;2.75;2.75;;;;;20.00;41.99;100580.75;5040336;28;46447;-61
2022/11/06 10:55:23;;;;;;;;;2.00;2.00;;;;;20.00;42.37;100564.09;5058088;28;45323;-65
2022/11/06 10:57:55;;;;;;;;;2.00;2.00;;;;;20.00;41.77;100558.84;5058213;28;45451;-62
2022/11/06 11:00:21;;;;;;;;;4.75;3.00;;;;;19.99;41.85;100547.50;5057988;28;45216;-71
2022/11/06 11:02:51;;;;;;;;;2.00;2.00;;;;;19.94;42.02;100546.88;5056708;28;48400;-67
2022/11/06 11:05:19;;;;;;;;;3.25;3.00;;;;;19.97;41.94;100546.72;5057866;28;45746;-66
2022/11/06 11:07:47;;;;;;;;;2.50;2.50;;;;;19.97;42.27;100537.97;5058065;28;45393;-68
2022/11/06 11:10:28;;;;;;;;;4.00;2.50;;;;;19.96;42.30;100536.25;5058329;28;45993;-61
2022/11/06 11:12:55;;;;;;;;;3.50;3.00;;;;;19.97;42.07;100532.69;5057482;28;47124;-68
2022/11/06 11:15:23;;;;;;;;;4.25;3.00;;;;;19.95;42.29;100539.88;5056636;28;45850;-59
2022/11/06 11:18:30;;;;;;;;;2.25;1.75;;;;;19.91;41.84;100537.41;5057617;28;45433;-62
2022/11/06 11:21:23;;;;;;;;;3.75;3.75;;;;;19.95;42.20;100535.44;5057831;28;45521;-68
2022/11/06 11:24:08;;;;;;;;;4.00;2.50;;;;;19.94;42.11;100533.72;5068494;28;48167;-57
2022/11/06 11:26:42;;;;;;;;;2.75;2.75;;;;;19.93;41.89;100527.66;5072370;28;45453;-67
2022/11/06 11:29:22;;;;;;;;;4.00;2.50;;;;;19.94;42.27;100528.47;5060345;28;45370;-60
2022/11/06 11:31:55;;;;;;;;;2.50;2.50;;;;;19.89;42.20;100514.75;5057167;28;45485;-66
2022/11/06 11:34:27;;;;;;;;;4.00;3.00;;;;;19.92;42.44;100511.94;5068588;28;46990;-54
2022/11/06 11:36:54;;;;;;;;;4.25;3.25;;;;;19.91;41.92;100502.34;5066263;28;45414;-59
2022/11/06 11:39:26;;;;;;;;;4.00;3.00;;;;;19.90;42.45;100476.97;5057703;28;45731;-56
2022/11/06 11:41:52;;;;;;;;;3.25;3.00;;;;;19.89;42.52;100457.72;5057622;28;45338;-61
2022/11/06 11:44:18;;;;;;;;;4.00;4.00;;;;;19.90;41.92;100469.09;5056689;28;45951;-61
2022/11/06 11:46:45;;;;;;;;;3.00;3.00;;;;;19.88;42.17;100471.81;5057667;28;45825;-64
2022/11/06 11:49:31;;;;;;;;;3.25;2.00;;;;;19.83;42.02;100451.94;5058008;28;45483;-63
2022/11/06 11:51:59;;;;;;;;;4.00;4.00;;;;;19.87;42.19;100449.06;5058620;28;45397;-58
2022/11/06 11:54:29;;;;;;;;;6.75;4.25;;;;;19.87;42.60;100458.75;5056484;28;46262;-59
2022/11/06 11:57:04;;;;;;;;;3.00;3.00;;;;;19.87;42.12;100442.97;5057529;28;45914;-59
2022/11/06 11:59:37;;;;;;;;;3.25;2.00;;;;;19.86;42.58;100442.13;5057652;28;45255;-59
2022/11/06 12:02:15;;;;;;;;;5.25;3.75;;;;;19.86;42.27;100444.75;5057368;28;45481;-59